sensor_id;sensor_type;location;lat;lon;timestamp;P1;durP1;ratioP1;P2;durP2;ratioP2
527;SDS011;250;47.712;7.508;2022-08-19T00:00:16;6.37;;;5.77;;
527;SDS011;250;47.712;7.508;2022-08-19T00:02:44;7.03;;;6.33;;
527;SDS011;250;47.712;7.508;2022-08-19T00:05:13;6.70;;;5.63;;
527;SDS011;250;47.712;7.508;2022-08-19T00:07:41;6.63;;;5.93;;
527;SDS011;250;47.712;7.508;2022-08-19T00:10:10;6.10;;;5.50;;
527;SDS011;250;47.712;7.508;2022-08-19T00:12:40;7.80;;;7.00;;
527;SDS011;250;47.712;7.508;2022-08-19T00:15:09;7.53;;;6.80;;
527;SDS011;250;47.712;7.508;2022-08-19T00:17:39;10.60;;;6.23;;
527;SDS011;250;47.712;7.508;2022-08-19T00:20:08;7.03;;;5.97;;
527;SDS011;250;47.712;7.508;2022-08-19T00:22:36;7.73;;;6.83;;
527;SDS011;250;47.712;7.508;2022-08-19T00:25:06;7.20;;;6.23;;
527;SDS011;250;47.712;7.508;2022-08-19T00:27:35;7.10;;;6.40;;
527;SDS011;250;47.712;7.508;2022-08-19T00:30:03;8.27;;;6.03;;
527;SDS011;250;47.712;7.508;2022-08-19T00:32:31;7.10;;;6.40;;
527;SDS011;250;47.712;7.508;2022-08-19T00:34:59;10.37;;;6.23;;
527;SDS011;250;47.712;7.508;2022-08-19T00:37:26;7.73;;;6.70;;
527;SDS011;250;47.712;7.508;2022-08-19T00:39:53;10.30;;;7.10;;
527;SDS011;250;47.712;7.508;2022-08-19T00:42:21;8.37;;;6.57;;
527;SDS011;250;47.712;7.508;2022-08-19T00:44:50;8.03;;;7.23;;
527;SDS011;250;47.712;7.508;2022-08-19T00:47:17;8.90;;;7.30;;
527;SDS011;250;47.712;7.508;2022-08-19T00:49:45;7.10;;;6.40;;
527;SDS011;250;47.712;7.508;2022-08-19T00:52:18;10.03;;;8.80;;
527;SDS011;250;47.712;7.508;2022-08-19T00:54:47;9.10;;;7.23;;
527;SDS011;250;47.712;7.508;2022-08-19T00:57:17;7.20;;;6.50;;
527;SDS011;250;47.712;7.508;2022-08-19T00:59:51;7.20;;;6.50;;
527;SDS011;250;47.712;7.508;2022-08-19T01:02:20;7.50;;;6.70;;
527;SDS011;250;47.712;7.508;2022-08-19T01:04:47;8.47;;;6.50;;
527;SDS011;250;47.712;7.508;2022-08-19T01:07:14;7.43;;;6.73;;
527;SDS011;250;47.712;7.508;2022-08-19T01:09:41;7.37;;;6.60;;
527;SDS011;250;47.712;7.508;2022-08-19T01:12:08;9.30;;;6.47;;
527;SDS011;250;47.712;7.508;2022-08-19T01:14:36;7.07;;;6.37;;
527;SDS011;250;47.712;7.508;2022-08-19T01:17:06;9.97;;;6.60;;
527;SDS011;250;47.712;7.508;2022-08-19T01:19:36;11.17;;;6.60;;
527;SDS011;250;47.712;7.508;2022-08-19T01:22:07;7.50;;;6.67;;
527;SDS011;250;47.712;7.508;2022-08-19T01:24:40;7.30;;;6.60;;
527;SDS011;250;47.712;7.508;2022-08-19T01:27:08;8.03;;;7.00;;
527;SDS011;250;47.712;7.508;2022-08-19T01:29:36;7.60;;;6.90;;
527;SDS011;250;47.712;7.508;2022-08-19T01:32:05;7.47;;;6.67;;
527;SDS011;250;47.712;7.508;2022-08-19T01:34:33;11.57;;;7.63;;
527;SDS011;250;47.712;7.508;2022-08-19T01:37:02;8.67;;;7.80;;
527;SDS011;250;47.712;7.508;2022-08-19T01:39:36;7.97;;;7.23;;
527;SDS011;250;47.712;7.508;2022-08-19T01:42:05;8.47;;;7.67;;
527;SDS011;250;47.712;7.508;2022-08-19T01:44:35;8.87;;;7.93;;
527;SDS011;250;47.712;7.508;2022-08-19T01:47:02;7.47;;;6.77;;
527;SDS011;250;47.712;7.508;2022-08-19T01:49:30;7.40;;;6.70;;
527;SDS011;250;47.712;7.508;2022-08-19T01:51:58;9.43;;;7.33;;
527;SDS011;250;47.712;7.508;2022-08-19T01:54:26;12.20;;;8.10;;
527;SDS011;250;47.712;7.508;2022-08-19T01:56:55;7.80;;;7.00;;
527;SDS011;250;47.712;7.508;2022-08-19T01:59:26;8.40;;;7.27;;
527;SDS011;250;47.712;7.508;2022-08-19T02:01:55;9.20;;;8.20;;
527;SDS011;250;47.712;7.508;2022-08-19T02:04:22;9.47;;;7.27;;
527;SDS011;250;47.712;7.508;2022-08-19T02:06:50;8.13;;;7.43;;
527;SDS011;250;47.712;7.508;2022-08-19T02:09:17;7.47;;;6.60;;
527;SDS011;250;47.712;7.508;2022-08-19T02:11:44;11.47;;;9.07;;
527;SDS011;250;47.712;7.508;2022-08-19T02:14:11;7.87;;;7.13;;
527;SDS011;250;47.712;7.508;2022-08-19T02:16:40;9.33;;;7.90;;
527;SDS011;250;47.712;7.508;2022-08-19T02:19:07;8.70;;;7.80;;
527;SDS011;250;47.712;7.508;2022-08-19T02:21:35;14.83;;;8.40;;
527;SDS011;250;47.712;7.508;2022-08-19T02:24:03;13.23;;;8.43;;
527;SDS011;250;47.712;7.508;2022-08-19T02:26:31;8.70;;;7.90;;
527;SDS011;250;47.712;7.508;2022-08-19T02:28:58;9.57;;;7.10;;
527;SDS011;250;47.712;7.508;2022-08-19T02:31:25;7.53;;;6.83;;
527;SDS011;250;47.712;7.508;2022-08-19T02:33:55;8.63;;;7.73;;
527;SDS011;250;47.712;7.508;2022-08-19T02:36:23;7.40;;;6.70;;
527;SDS011;250;47.712;7.508;2022-08-19T02:38:52;7.40;;;6.67;;
527;SDS011;250;47.712;7.508;2022-08-19T02:41:20;9.20;;;7.30;;
527;SDS011;250;47.712;7.508;2022-08-19T02:43:49;8.00;;;7.30;;
527;SDS011;250;47.712;7.508;2022-08-19T02:46:17;11.37;;;8.30;;
527;SDS011;250;47.712;7.508;2022-08-19T02:48:46;8.10;;;7.30;;
527;SDS011;250;47.712;7.508;2022-08-19T02:51:19;9.40;;;8.03;;
527;SDS011;250;47.712;7.508;2022-08-19T02:53:47;7.50;;;6.83;;
527;SDS011;250;47.712;7.508;2022-08-19T02:56:14;7.93;;;6.97;;
527;SDS011;250;47.712;7.508;2022-08-19T02:58:42;8.07;;;7.27;;
527;SDS011;250;47.712;7.508;2022-08-19T03:01:09;13.77;;;7.77;;
527;SDS011;250;47.712;7.508;2022-08-19T03:03:37;8.70;;;7.90;;
527;SDS011;250;47.712;7.508;2022-08-19T03:06:06;8.80;;;7.90;;
527;SDS011;250;47.712;7.508;2022-08-19T03:08:36;8.03;;;7.23;;
527;SDS011;250;47.712;7.508;2022-08-19T03:11:04;8.83;;;7.67;;
527;SDS011;250;47.712;7.508;2022-08-19T03:13:32;8.83;;;8.00;;
527;SDS011;250;47.712;7.508;2022-08-19T03:15:59;9.17;;;7.70;;
527;SDS011;250;47.712;7.508;2022-08-19T03:18:26;9.50;;;7.30;;
527;SDS011;250;47.712;7.508;2022-08-19T03:20:53;8.53;;;7.63;;
527;SDS011;250;47.712;7.508;2022-08-19T03:23:21;8.53;;;7.67;;
527;SDS011;250;47.712;7.508;2022-08-19T03:25:50;9.90;;;7.90;;
527;SDS011;250;47.712;7.508;2022-08-19T03:28:19;7.90;;;7.03;;
527;SDS011;250;47.712;7.508;2022-08-19T03:30:57;8.53;;;7.70;;
527;SDS011;250;47.712;7.508;2022-08-19T03:33:27;7.57;;;6.83;;
527;SDS011;250;47.712;7.508;2022-08-19T03:36:05;7.80;;;6.83;;
527;SDS011;250;47.712;7.508;2022-08-19T03:38:34;7.00;;;6.03;;
527;SDS011;250;47.712;7.508;2022-08-19T03:41:04;7.30;;;6.17;;
527;SDS011;250;47.712;7.508;2022-08-19T03:43:33;9.00;;;5.80;;
527;SDS011;250;47.712;7.508;2022-08-19T03:46:01;7.20;;;6.00;;
527;SDS011;250;47.712;7.508;2022-08-19T03:48:30;6.67;;;5.50;;
527;SDS011;250;47.712;7.508;2022-08-19T03:50:58;5.90;;;5.30;;
527;SDS011;250;47.712;7.508;2022-08-19T03:53:25;11.03;;;5.67;;
527;SDS011;250;47.712;7.508;2022-08-19T03:55:53;6.57;;;5.50;;
527;SDS011;250;47.712;7.508;2022-08-19T03:58:21;6.50;;;5.57;;
527;SDS011;250;47.712;7.508;2022-08-19T04:00:49;5.90;;;5.30;;
527;SDS011;250;47.712;7.508;2022-08-19T04:03:16;5.10;;;4.60;;
527;SDS011;250;47.712;7.508;2022-08-19T04:05:44;5.40;;;4.90;;
527;SDS011;250;47.712;7.508;2022-08-19T04:08:12;6.30;;;5.50;;
527;SDS011;250;47.712;7.508;2022-08-19T04:10:45;6.30;;;5.20;;
527;SDS011;250;47.712;7.508;2022-08-19T04:13:13;6.13;;;4.80;;
527;SDS011;250;47.712;7.508;2022-08-19T04:15:42;6.17;;;5.60;;
527;SDS011;250;47.712;7.508;2022-08-19T04:18:11;6.50;;;5.40;;
527;SDS011;250;47.712;7.508;2022-08-19T04:20:42;6.10;;;5.50;;
527;SDS011;250;47.712;7.508;2022-08-19T04:23:11;5.33;;;4.83;;
527;SDS011;250;47.712;7.508;2022-08-19T04:25:39;5.40;;;4.90;;
527;SDS011;250;47.712;7.508;2022-08-19T04:28:09;5.03;;;4.40;;
527;SDS011;250;47.712;7.508;2022-08-19T04:30:38;5.50;;;5.00;;
527;SDS011;250;47.712;7.508;2022-08-19T04:33:07;7.80;;;5.33;;
527;SDS011;250;47.712;7.508;2022-08-19T04:35:35;5.93;;;5.33;;
527;SDS011;250;47.712;7.508;2022-08-19T04:38:04;6.67;;;5.30;;
527;SDS011;250;47.712;7.508;2022-08-19T04:40:31;6.60;;;5.77;;
527;SDS011;250;47.712;7.508;2022-08-19T04:43:17;5.17;;;4.67;;
527;SDS011;250;47.712;7.508;2022-08-19T04:45:44;5.33;;;4.30;;
527;SDS011;250;47.712;7.508;2022-08-19T04:48:14;4.50;;;4.10;;
527;SDS011;250;47.712;7.508;2022-08-19T04:50:43;6.00;;;5.50;;
527;SDS011;250;47.712;7.508;2022-08-19T04:53:10;7.33;;;5.97;;
527;SDS011;250;47.712;7.508;2022-08-19T04:55:40;6.90;;;5.80;;
527;SDS011;250;47.712;7.508;2022-08-19T04:58:07;6.67;;;5.97;;
527;SDS011;250;47.712;7.508;2022-08-19T05:00:37;5.40;;;4.63;;
527;SDS011;250;47.712;7.508;2022-08-19T05:03:04;5.53;;;5.03;;
527;SDS011;250;47.712;7.508;2022-08-19T05:05:33;5.93;;;5.33;;
527;SDS011;250;47.712;7.508;2022-08-19T05:08:04;6.30;;;5.73;;
527;SDS011;250;47.712;7.508;2022-08-19T05:10:31;5.73;;;5.13;;
527;SDS011;250;47.712;7.508;2022-08-19T05:13:00;6.23;;;5.50;;
527;SDS011;250;47.712;7.508;2022-08-19T05:15:27;6.40;;;5.30;;
527;SDS011;250;47.712;7.508;2022-08-19T05:17:54;5.20;;;4.53;;
527;SDS011;250;47.712;7.508;2022-08-19T05:20:40;6.70;;;5.10;;
527;SDS011;250;47.712;7.508;2022-08-19T05:23:24;7.40;;;5.13;;
527;SDS011;250;47.712;7.508;2022-08-19T05:25:52;7.57;;;6.13;;
527;SDS011;250;47.712;7.508;2022-08-19T05:28:19;6.17;;;5.57;;
527;SDS011;250;47.712;7.508;2022-08-19T05:30:46;6.77;;;5.80;;
527;SDS011;250;47.712;7.508;2022-08-19T05:33:15;5.40;;;4.90;;
527;SDS011;250;47.712;7.508;2022-08-19T05:35:44;6.90;;;6.13;;
527;SDS011;250;47.712;7.508;2022-08-19T05:38:13;11.80;;;6.03;;
527;SDS011;250;47.712;7.508;2022-08-19T05:40:40;9.10;;;5.90;;
527;SDS011;250;47.712;7.508;2022-08-19T05:43:12;5.80;;;4.90;;
527;SDS011;250;47.712;7.508;2022-08-19T05:45:41;7.13;;;6.07;;
527;SDS011;250;47.712;7.508;2022-08-19T05:48:09;8.23;;;6.77;;
527;SDS011;250;47.712;7.508;2022-08-19T05:50:37;8.50;;;6.40;;
527;SDS011;250;47.712;7.508;2022-08-19T05:53:06;6.97;;;6.27;;
527;SDS011;250;47.712;7.508;2022-08-19T05:55:34;7.70;;;6.80;;
527;SDS011;250;47.712;7.508;2022-08-19T05:58:03;7.50;;;6.70;;
527;SDS011;250;47.712;7.508;2022-08-19T06:00:32;6.27;;;5.00;;
527;SDS011;250;47.712;7.508;2022-08-19T06:03:00;6.60;;;5.67;;
527;SDS011;250;47.712;7.508;2022-08-19T06:05:28;11.20;;;6.63;;
527;SDS011;250;47.712;7.508;2022-08-19T06:07:55;7.20;;;6.50;;
527;SDS011;250;47.712;7.508;2022-08-19T06:10:25;8.03;;;6.53;;
527;SDS011;250;47.712;7.508;2022-08-19T06:12:53;7.80;;;6.60;;
527;SDS011;250;47.712;7.508;2022-08-19T06:15:21;7.30;;;6.03;;
527;SDS011;250;47.712;7.508;2022-08-19T06:17:53;7.70;;;5.97;;
527;SDS011;250;47.712;7.508;2022-08-19T06:20:20;8.20;;;7.40;;
527;SDS011;250;47.712;7.508;2022-08-19T06:22:48;9.03;;;7.40;;
527;SDS011;250;47.712;7.508;2022-08-19T06:25:16;9.77;;;7.47;;
527;SDS011;250;47.712;7.508;2022-08-19T06:27:45;8.43;;;7.23;;
527;SDS011;250;47.712;7.508;2022-08-19T06:30:12;9.53;;;7.60;;
527;SDS011;250;47.712;7.508;2022-08-19T06:32:40;7.50;;;6.80;;
527;SDS011;250;47.712;7.508;2022-08-19T06:35:07;8.47;;;7.60;;
527;SDS011;250;47.712;7.508;2022-08-19T06:37:35;8.57;;;6.83;;
527;SDS011;250;47.712;7.508;2022-08-19T06:40:03;11.83;;;7.10;;
527;SDS011;250;47.712;7.508;2022-08-19T06:42:31;8.80;;;7.90;;
527;SDS011;250;47.712;7.508;2022-08-19T06:44:59;9.70;;;7.77;;
527;SDS011;250;47.712;7.508;2022-08-19T06:47:28;7.93;;;7.10;;
527;SDS011;250;47.712;7.508;2022-08-19T06:49:56;9.13;;;8.23;;
527;SDS011;250;47.712;7.508;2022-08-19T06:52:26;9.50;;;8.60;;
527;SDS011;250;47.712;7.508;2022-08-19T06:54:54;8.37;;;7.50;;
527;SDS011;250;47.712;7.508;2022-08-19T06:57:21;9.70;;;8.70;;
527;SDS011;250;47.712;7.508;2022-08-19T06:59:48;9.30;;;8.33;;
527;SDS011;250;47.712;7.508;2022-08-19T07:02:17;10.07;;;9.17;;
527;SDS011;250;47.712;7.508;2022-08-19T07:04:45;10.90;;;7.80;;
527;SDS011;250;47.712;7.508;2022-08-19T07:07:13;9.93;;;8.87;;
527;SDS011;250;47.712;7.508;2022-08-19T07:09:41;10.93;;;9.10;;
527;SDS011;250;47.712;7.508;2022-08-19T07:12:10;11.60;;;9.27;;
527;SDS011;250;47.712;7.508;2022-08-19T07:14:40;9.77;;;8.40;;
527;SDS011;250;47.712;7.508;2022-08-19T07:17:08;10.37;;;8.57;;
527;SDS011;250;47.712;7.508;2022-08-19T07:19:38;8.63;;;7.73;;
527;SDS011;250;47.712;7.508;2022-08-19T07:22:08;10.00;;;8.83;;
527;SDS011;250;47.712;7.508;2022-08-19T07:24:36;9.77;;;8.43;;
527;SDS011;250;47.712;7.508;2022-08-19T07:27:04;10.80;;;9.13;;
527;SDS011;250;47.712;7.508;2022-08-19T07:29:33;14.43;;;10.50;;
527;SDS011;250;47.712;7.508;2022-08-19T07:32:02;10.07;;;9.07;;
527;SDS011;250;47.712;7.508;2022-08-19T07:34:30;9.27;;;8.37;;
527;SDS011;250;47.712;7.508;2022-08-19T07:37:00;10.60;;;7.93;;
527;SDS011;250;47.712;7.508;2022-08-19T07:39:30;8.87;;;8.07;;
527;SDS011;250;47.712;7.508;2022-08-19T07:41:59;8.60;;;7.70;;
527;SDS011;250;47.712;7.508;2022-08-19T07:44:31;10.00;;;9.00;;
527;SDS011;250;47.712;7.508;2022-08-19T07:46:59;9.97;;;8.93;;
527;SDS011;250;47.712;7.508;2022-08-19T07:49:27;11.43;;;8.67;;
527;SDS011;250;47.712;7.508;2022-08-19T07:51:54;12.33;;;9.83;;
527;SDS011;250;47.712;7.508;2022-08-19T07:54:25;11.63;;;8.63;;
527;SDS011;250;47.712;7.508;2022-08-19T07:56:53;9.77;;;8.30;;
527;SDS011;250;47.712;7.508;2022-08-19T07:59:22;12.20;;;10.13;;
527;SDS011;250;47.712;7.508;2022-08-19T08:01:50;12.67;;;10.20;;
527;SDS011;250;47.712;7.508;2022-08-19T08:04:18;14.10;;;9.30;;
527;SDS011;250;47.712;7.508;2022-08-19T08:07:04;11.00;;;9.90;;
527;SDS011;250;47.712;7.508;2022-08-19T08:09:51;11.03;;;9.90;;
527;SDS011;250;47.712;7.508;2022-08-19T08:12:19;11.67;;;9.70;;
527;SDS011;250;47.712;7.508;2022-08-19T08:14:53;10.33;;;9.33;;
527;SDS011;250;47.712;7.508;2022-08-19T08:17:23;11.30;;;10.13;;
527;SDS011;250;47.712;7.508;2022-08-19T08:19:51;13.53;;;10.33;;
527;SDS011;250;47.712;7.508;2022-08-19T08:22:19;9.70;;;8.80;;
527;SDS011;250;47.712;7.508;2022-08-19T08:25:07;10.20;;;9.20;;
527;SDS011;250;47.712;7.508;2022-08-19T08:27:37;11.60;;;10.40;;
527;SDS011;250;47.712;7.508;2022-08-19T08:30:06;11.13;;;9.97;;
527;SDS011;250;47.712;7.508;2022-08-19T08:32:35;11.03;;;9.93;;
527;SDS011;250;47.712;7.508;2022-08-19T08:35:03;13.80;;;9.60;;
527;SDS011;250;47.712;7.508;2022-08-19T08:37:30;10.27;;;9.27;;
527;SDS011;250;47.712;7.508;2022-08-19T08:39:57;10.90;;;9.90;;
527;SDS011;250;47.712;7.508;2022-08-19T08:42:27;13.23;;;10.20;;
527;SDS011;250;47.712;7.508;2022-08-19T08:45:00;11.67;;;9.87;;
527;SDS011;250;47.712;7.508;2022-08-19T08:47:36;9.73;;;8.73;;
527;SDS011;250;47.712;7.508;2022-08-19T08:50:06;10.97;;;8.87;;
527;SDS011;250;47.712;7.508;2022-08-19T08:52:41;10.23;;;8.70;;
527;SDS011;250;47.712;7.508;2022-08-19T08:55:14;15.87;;;10.33;;
527;SDS011;250;47.712;7.508;2022-08-19T08:57:48;11.10;;;9.70;;
527;SDS011;250;47.712;7.508;2022-08-19T09:00:23;11.77;;;10.60;;
527;SDS011;250;47.712;7.508;2022-08-19T09:02:52;12.13;;;10.93;;
527;SDS011;250;47.712;7.508;2022-08-19T09:05:20;12.97;;;10.00;;
527;SDS011;250;47.712;7.508;2022-08-19T09:07:50;12.07;;;10.83;;
527;SDS011;250;47.712;7.508;2022-08-19T09:10:25;11.63;;;10.50;;
527;SDS011;250;47.712;7.508;2022-08-19T09:13:00;11.10;;;10.00;;
527;SDS011;250;47.712;7.508;2022-08-19T09:15:40;11.47;;;10.37;;
527;SDS011;250;47.712;7.508;2022-08-19T09:18:10;13.23;;;10.50;;
527;SDS011;250;47.712;7.508;2022-08-19T09:20:38;12.40;;;10.70;;
527;SDS011;250;47.712;7.508;2022-08-19T09:23:05;12.33;;;11.03;;
527;SDS011;250;47.712;7.508;2022-08-19T09:25:33;11.80;;;10.60;;
527;SDS011;250;47.712;7.508;2022-08-19T09:28:02;12.23;;;11.03;;
527;SDS011;250;47.712;7.508;2022-08-19T09:30:30;13.30;;;11.93;;
527;SDS011;250;47.712;7.508;2022-08-19T09:32:58;13.50;;;11.10;;
527;SDS011;250;47.712;7.508;2022-08-19T09:35:27;11.87;;;10.70;;
527;SDS011;250;47.712;7.508;2022-08-19T09:37:55;12.40;;;11.07;;
527;SDS011;250;47.712;7.508;2022-08-19T09:40:23;16.80;;;12.40;;
527;SDS011;250;47.712;7.508;2022-08-19T09:42:51;12.53;;;11.33;;
527;SDS011;250;47.712;7.508;2022-08-19T09:45:21;12.80;;;11.27;;
527;SDS011;250;47.712;7.508;2022-08-19T09:47:49;12.07;;;10.90;;
527;SDS011;250;47.712;7.508;2022-08-19T09:50:17;12.13;;;10.77;;
527;SDS011;250;47.712;7.508;2022-08-19T09:52:45;13.20;;;10.93;;
527;SDS011;250;47.712;7.508;2022-08-19T09:55:12;14.80;;;12.47;;
527;SDS011;250;47.712;7.508;2022-08-19T09:57:41;20.77;;;13.10;;
527;SDS011;250;47.712;7.508;2022-08-19T10:00:08;13.13;;;10.70;;
527;SDS011;250;47.712;7.508;2022-08-19T10:02:37;12.77;;;11.50;;
527;SDS011;250;47.712;7.508;2022-08-19T10:05:05;16.10;;;14.40;;
527;SDS011;250;47.712;7.508;2022-08-19T10:08:01;15.10;;;12.10;;
527;SDS011;250;47.712;7.508;2022-08-19T10:10:28;14.87;;;12.40;;
527;SDS011;250;47.712;7.508;2022-08-19T10:12:55;14.30;;;12.90;;
527;SDS011;250;47.712;7.508;2022-08-19T10:15:22;16.97;;;13.57;;
527;SDS011;250;47.712;7.508;2022-08-19T10:17:50;15.20;;;13.50;;
527;SDS011;250;47.712;7.508;2022-08-19T10:20:17;14.97;;;13.47;;
527;SDS011;250;47.712;7.508;2022-08-19T10:22:45;17.40;;;13.20;;
527;SDS011;250;47.712;7.508;2022-08-19T10:25:12;14.43;;;12.80;;
527;SDS011;250;47.712;7.508;2022-08-19T10:27:41;22.33;;;16.53;;
527;SDS011;250;47.712;7.508;2022-08-19T10:30:08;13.23;;;11.87;;
527;SDS011;250;47.712;7.508;2022-08-19T10:32:36;15.90;;;13.60;;
527;SDS011;250;47.712;7.508;2022-08-19T10:35:05;13.97;;;12.53;;
527;SDS011;250;47.712;7.508;2022-08-19T10:37:33;16.10;;;13.67;;
527;SDS011;250;47.712;7.508;2022-08-19T10:40:00;14.70;;;13.13;;
527;SDS011;250;47.712;7.508;2022-08-19T10:42:28;14.80;;;13.30;;
527;SDS011;250;47.712;7.508;2022-08-19T10:44:56;14.70;;;13.07;;
527;SDS011;250;47.712;7.508;2022-08-19T10:47:23;14.40;;;12.90;;
527;SDS011;250;47.712;7.508;2022-08-19T10:49:50;15.33;;;13.20;;
527;SDS011;250;47.712;7.508;2022-08-19T10:52:37;14.80;;;13.30;;
527;SDS011;250;47.712;7.508;2022-08-19T10:55:05;14.53;;;12.43;;
527;SDS011;250;47.712;7.508;2022-08-19T10:57:51;15.20;;;13.60;;
527;SDS011;250;47.712;7.508;2022-08-19T11:00:18;15.50;;;13.00;;
527;SDS011;250;47.712;7.508;2022-08-19T11:02:46;14.50;;;13.00;;
527;SDS011;250;47.712;7.508;2022-08-19T11:05:13;16.33;;;13.83;;
527;SDS011;250;47.712;7.508;2022-08-19T11:07:41;15.67;;;13.67;;
527;SDS011;250;47.712;7.508;2022-08-19T11:10:10;15.83;;;14.37;;
527;SDS011;250;47.712;7.508;2022-08-19T11:12:39;14.83;;;13.30;;
527;SDS011;250;47.712;7.508;2022-08-19T11:15:07;16.10;;;14.60;;
527;SDS011;250;47.712;7.508;2022-08-19T11:17:36;28.80;;;14.10;;
527;SDS011;250;47.712;7.508;2022-08-19T11:20:07;17.43;;;14.70;;
527;SDS011;250;47.712;7.508;2022-08-19T11:22:35;16.63;;;14.70;;
527;SDS011;250;47.712;7.508;2022-08-19T11:25:04;18.20;;;15.40;;
527;SDS011;250;47.712;7.508;2022-08-19T11:27:31;17.00;;;14.60;;
527;SDS011;250;47.712;7.508;2022-08-19T11:29:59;16.33;;;14.63;;
527;SDS011;250;47.712;7.508;2022-08-19T11:32:28;16.87;;;14.77;;
527;SDS011;250;47.712;7.508;2022-08-19T11:34:55;16.07;;;14.40;;
527;SDS011;250;47.712;7.508;2022-08-19T11:37:22;19.13;;;16.57;;
527;SDS011;250;47.712;7.508;2022-08-19T11:39:49;16.37;;;14.77;;
527;SDS011;250;47.712;7.508;2022-08-19T11:42:18;16.00;;;14.10;;
527;SDS011;250;47.712;7.508;2022-08-19T11:45:02;17.50;;;15.67;;
527;SDS011;250;47.712;7.508;2022-08-19T11:47:30;18.30;;;16.43;;
527;SDS011;250;47.712;7.508;2022-08-19T11:49:57;15.60;;;13.63;;
527;SDS011;250;47.712;7.508;2022-08-19T11:52:24;17.50;;;15.30;;
527;SDS011;250;47.712;7.508;2022-08-19T11:54:52;15.57;;;14.07;;
527;SDS011;250;47.712;7.508;2022-08-19T11:57:20;15.53;;;14.07;;
527;SDS011;250;47.712;7.508;2022-08-19T11:59:48;18.03;;;14.83;;
527;SDS011;250;47.712;7.508;2022-08-19T12:02:15;17.07;;;14.93;;
527;SDS011;250;47.712;7.508;2022-08-19T12:04:44;14.37;;;12.87;;
527;SDS011;250;47.712;7.508;2022-08-19T12:07:11;17.57;;;14.20;;
527;SDS011;250;47.712;7.508;2022-08-19T12:09:38;16.50;;;14.83;;
527;SDS011;250;47.712;7.508;2022-08-19T12:12:05;17.57;;;15.73;;
527;SDS011;250;47.712;7.508;2022-08-19T12:14:34;18.03;;;16.33;;
527;SDS011;250;47.712;7.508;2022-08-19T12:17:02;17.70;;;16.00;;
527;SDS011;250;47.712;7.508;2022-08-19T12:19:32;17.73;;;15.87;;
527;SDS011;250;47.712;7.508;2022-08-19T12:22:00;16.93;;;15.13;;
527;SDS011;250;47.712;7.508;2022-08-19T12:24:29;19.70;;;17.70;;
527;SDS011;250;47.712;7.508;2022-08-19T12:26:57;19.73;;;17.57;;
527;SDS011;250;47.712;7.508;2022-08-19T12:29:26;21.40;;;18.17;;
527;SDS011;250;47.712;7.508;2022-08-19T12:31:56;19.27;;;17.23;;
527;SDS011;250;47.712;7.508;2022-08-19T12:34:27;18.77;;;16.80;;
527;SDS011;250;47.712;7.508;2022-08-19T12:36:56;19.43;;;17.33;;
527;SDS011;250;47.712;7.508;2022-08-19T12:39:23;20.10;;;18.00;;
527;SDS011;250;47.712;7.508;2022-08-19T12:41:50;21.00;;;18.37;;
527;SDS011;250;47.712;7.508;2022-08-19T12:44:17;22.80;;;19.43;;
527;SDS011;250;47.712;7.508;2022-08-19T12:46:45;20.50;;;18.40;;
527;SDS011;250;47.712;7.508;2022-08-19T12:49:15;22.93;;;20.63;;
527;SDS011;250;47.712;7.508;2022-08-19T12:51:42;24.17;;;21.43;;
527;SDS011;250;47.712;7.508;2022-08-19T12:54:09;23.80;;;21.30;;
527;SDS011;250;47.712;7.508;2022-08-19T12:56:36;27.33;;;21.70;;
527;SDS011;250;47.712;7.508;2022-08-19T12:59:03;24.43;;;21.87;;
527;SDS011;250;47.712;7.508;2022-08-19T13:01:32;23.47;;;20.97;;
527;SDS011;250;47.712;7.508;2022-08-19T13:03:59;24.77;;;21.93;;
527;SDS011;250;47.712;7.508;2022-08-19T13:06:28;24.03;;;20.30;;
527;SDS011;250;47.712;7.508;2022-08-19T13:08:55;25.63;;;22.87;;
527;SDS011;250;47.712;7.508;2022-08-19T13:11:22;23.60;;;21.10;;
527;SDS011;250;47.712;7.508;2022-08-19T13:13:50;23.57;;;21.07;;
527;SDS011;250;47.712;7.508;2022-08-19T13:16:20;23.30;;;20.90;;
527;SDS011;250;47.712;7.508;2022-08-19T13:18:47;22.00;;;19.67;;
527;SDS011;250;47.712;7.508;2022-08-19T13:21:16;22.30;;;20.00;;
527;SDS011;250;47.712;7.508;2022-08-19T13:23:47;24.77;;;20.57;;
527;SDS011;250;47.712;7.508;2022-08-19T13:26:14;25.47;;;22.00;;
527;SDS011;250;47.712;7.508;2022-08-19T13:28:42;25.60;;;20.37;;
527;SDS011;250;47.712;7.508;2022-08-19T13:31:28;23.23;;;20.97;;
527;SDS011;250;47.712;7.508;2022-08-19T13:34:14;23.83;;;21.43;;
527;SDS011;250;47.712;7.508;2022-08-19T13:36:42;23.27;;;20.83;;
527;SDS011;250;47.712;7.508;2022-08-19T13:39:10;24.70;;;22.10;;
527;SDS011;250;47.712;7.508;2022-08-19T13:41:42;23.67;;;21.17;;
527;SDS011;250;47.712;7.508;2022-08-19T13:44:12;31.00;;;20.23;;
527;SDS011;250;47.712;7.508;2022-08-19T13:46:40;24.23;;;21.63;;
527;SDS011;250;47.712;7.508;2022-08-19T13:49:09;23.13;;;20.70;;
527;SDS011;250;47.712;7.508;2022-08-19T13:51:37;22.43;;;20.03;;
527;SDS011;250;47.712;7.508;2022-08-19T13:54:05;24.60;;;21.27;;
527;SDS011;250;47.712;7.508;2022-08-19T13:56:35;22.17;;;19.77;;
527;SDS011;250;47.712;7.508;2022-08-19T13:59:05;22.90;;;20.53;;
527;SDS011;250;47.712;7.508;2022-08-19T14:01:32;20.67;;;18.57;;
527;SDS011;250;47.712;7.508;2022-08-19T14:04:00;24.47;;;19.93;;
527;SDS011;250;47.712;7.508;2022-08-19T14:06:27;22.47;;;19.53;;
527;SDS011;250;47.712;7.508;2022-08-19T14:08:54;21.93;;;19.50;;
527;SDS011;250;47.712;7.508;2022-08-19T14:11:21;21.30;;;19.00;;
527;SDS011;250;47.712;7.508;2022-08-19T14:13:50;25.73;;;19.63;;
527;SDS011;250;47.712;7.508;2022-08-19T14:16:17;20.17;;;18.10;;
527;SDS011;250;47.712;7.508;2022-08-19T14:18:44;21.60;;;19.33;;
527;SDS011;250;47.712;7.508;2022-08-19T14:21:14;21.37;;;19.20;;
527;SDS011;250;47.712;7.508;2022-08-19T14:23:43;22.93;;;19.07;;
527;SDS011;250;47.712;7.508;2022-08-19T14:26:12;22.97;;;20.57;;
527;SDS011;250;47.712;7.508;2022-08-19T14:28:41;21.13;;;19.07;;
527;SDS011;250;47.712;7.508;2022-08-19T14:31:11;20.23;;;18.03;;
527;SDS011;250;47.712;7.508;2022-08-19T14:33:39;22.20;;;19.90;;
527;SDS011;250;47.712;7.508;2022-08-19T14:36:07;22.10;;;19.80;;
527;SDS011;250;47.712;7.508;2022-08-19T14:38:34;24.90;;;18.53;;
527;SDS011;250;47.712;7.508;2022-08-19T14:41:05;18.27;;;16.43;;
527;SDS011;250;47.712;7.508;2022-08-19T14:43:34;18.30;;;16.50;;
527;SDS011;250;47.712;7.508;2022-08-19T14:46:01;18.53;;;16.73;;
527;SDS011;250;47.712;7.508;2022-08-19T14:48:29;20.00;;;17.90;;
527;SDS011;250;47.712;7.508;2022-08-19T14:50:56;19.53;;;17.47;;
527;SDS011;250;47.712;7.508;2022-08-19T14:53:23;19.40;;;17.50;;
527;SDS011;250;47.712;7.508;2022-08-19T14:55:50;20.97;;;18.73;;
527;SDS011;250;47.712;7.508;2022-08-19T14:58:17;20.07;;;18.03;;
527;SDS011;250;47.712;7.508;2022-08-19T15:00:45;22.37;;;20.23;;
527;SDS011;250;47.712;7.508;2022-08-19T15:03:12;18.80;;;17.00;;
527;SDS011;250;47.712;7.508;2022-08-19T15:05:40;20.43;;;18.40;;
527;SDS011;250;47.712;7.508;2022-08-19T15:08:07;22.90;;;19.03;;
527;SDS011;250;47.712;7.508;2022-08-19T15:10:35;20.13;;;18.13;;
527;SDS011;250;47.712;7.508;2022-08-19T15:13:02;21.00;;;18.97;;
527;SDS011;250;47.712;7.508;2022-08-19T15:15:29;22.03;;;19.77;;
527;SDS011;250;47.712;7.508;2022-08-19T15:17:56;21.60;;;19.33;;
527;SDS011;250;47.712;7.508;2022-08-19T15:20:27;21.93;;;17.50;;
527;SDS011;250;47.712;7.508;2022-08-19T15:22:57;19.70;;;17.70;;
527;SDS011;250;47.712;7.508;2022-08-19T15:25:25;19.20;;;17.30;;
527;SDS011;250;47.712;7.508;2022-08-19T15:27:52;19.43;;;17.40;;
527;SDS011;250;47.712;7.508;2022-08-19T15:30:21;19.07;;;17.17;;
527;SDS011;250;47.712;7.508;2022-08-19T15:32:52;18.93;;;17.10;;
527;SDS011;250;47.712;7.508;2022-08-19T15:35:20;17.40;;;15.80;;
527;SDS011;250;47.712;7.508;2022-08-19T15:37:48;17.30;;;15.60;;
527;SDS011;250;47.712;7.508;2022-08-19T15:40:17;21.97;;;16.53;;